createdAt,value
2024-03-16T00:00:27.083Z,9.30
2024-03-16T00:02:55.006Z,9.50
2024-03-16T00:05:22.651Z,8.63
2024-03-16T00:07:51.092Z,7.90
2024-03-16T00:10:18.597Z,9.07
2024-03-16T00:12:46.196Z,8.77
2024-03-16T00:15:13.847Z,7.90
2024-03-16T00:17:41.454Z,9.20
2024-03-16T00:20:12.024Z,9.70
2024-03-16T00:22:39.765Z,9.20
2024-03-16T00:25:07.933Z,8.80
2024-03-16T00:27:36.051Z,9.50
2024-03-16T00:30:07.746Z,8.47
2024-03-16T00:32:35.568Z,9.47
2024-03-16T00:35:04.674Z,8.70
2024-03-16T00:37:33.103Z,8.87
2024-03-16T00:40:00.722Z,8.07
2024-03-16T00:42:28.673Z,8.23
2024-03-16T00:44:56.660Z,8.23
2024-03-16T00:47:24.890Z,8.93
2024-03-16T00:49:53.919Z,9.67
2024-03-16T00:52:21.357Z,8.57
2024-03-16T00:54:49.092Z,8.00
2024-03-16T00:57:16.615Z,8.00
2024-03-16T00:59:45.136Z,7.63
2024-03-16T01:02:12.551Z,7.67
2024-03-16T01:04:40.483Z,8.10
2024-03-16T01:07:08.172Z,7.50
2024-03-16T01:09:35.916Z,7.57
2024-03-16T01:12:03.992Z,6.97
2024-03-16T01:14:31.571Z,6.87
2024-03-16T01:16:59.007Z,7.20
2024-03-16T01:19:26.637Z,6.80
2024-03-16T01:21:54.246Z,7.50
2024-03-16T01:24:21.973Z,6.60
2024-03-16T01:26:50.692Z,8.03
2024-03-16T01:29:18.562Z,8.37
2024-03-16T01:31:46.418Z,7.53
2024-03-16T01:34:14.094Z,6.37
2024-03-16T01:36:41.641Z,7.03
2024-03-16T01:39:13.187Z,6.87
2024-03-16T01:41:41.743Z,8.17
2024-03-16T01:44:13.668Z,7.20
2024-03-16T01:46:43.003Z,6.57
2024-03-16T01:49:11.122Z,5.80
2024-03-16T01:51:40.709Z,6.77
2024-03-16T01:54:08.895Z,7.67
2024-03-16T01:56:36.531Z,6.50
2024-03-16T01:59:04.649Z,7.73
2024-03-16T02:01:32.825Z,7.73
2024-03-16T02:04:00.611Z,7.93
2024-03-16T02:06:30.236Z,7.57
2024-03-16T02:08:58.371Z,7.60
2024-03-16T02:11:25.975Z,7.90
2024-03-16T02:13:53.496Z,7.27
2024-03-16T02:16:21.030Z,7.13
2024-03-16T02:18:48.996Z,7.57
2024-03-16T02:21:16.464Z,7.60
2024-03-16T02:23:44.208Z,8.60
2024-03-16T02:26:12.777Z,7.70
2024-03-16T02:28:40.298Z,7.63
2024-03-16T02:31:08.163Z,8.07
2024-03-16T02:33:36.587Z,7.50
2024-03-16T02:36:05.206Z,7.60
2024-03-16T02:38:32.645Z,7.37
2024-03-16T02:41:00.516Z,8.03
2024-03-16T02:43:27.985Z,7.80
2024-03-16T02:45:58.930Z,6.97
2024-03-16T02:48:27.916Z,7.50
2024-03-16T02:50:55.886Z,7.27
2024-03-16T02:53:23.801Z,6.87
2024-03-16T02:55:51.345Z,7.13
2024-03-16T02:58:19.067Z,9.87
2024-03-16T03:00:47.416Z,7.77
2024-03-16T03:03:15.589Z,10.93
2024-03-16T03:05:43.374Z,7.70
2024-03-16T03:08:11.630Z,7.13
2024-03-16T03:10:42.655Z,7.67
2024-03-16T03:13:10.459Z,7.30
2024-03-16T03:15:38.081Z,7.47
2024-03-16T03:18:07.049Z,6.97
2024-03-16T03:20:35.151Z,8.10
2024-03-16T03:23:03.586Z,7.10
2024-03-16T03:25:31.513Z,7.27
2024-03-16T03:28:00.322Z,7.70
2024-03-16T03:30:27.990Z,7.37
2024-03-16T03:32:55.696Z,7.50
2024-03-16T03:35:23.163Z,8.20
2024-03-16T03:37:50.812Z,7.63
2024-03-16T03:40:19.516Z,8.33
2024-03-16T03:42:49.721Z,7.73
2024-03-16T03:45:28.815Z,7.93
2024-03-16T03:48:04.335Z,7.37
2024-03-16T03:50:34.339Z,7.77
2024-03-16T03:53:06.798Z,7.57
2024-03-16T03:55:34.678Z,8.13
2024-03-16T03:58:04.006Z,7.87
2024-03-16T04:00:31.752Z,7.83
2024-03-16T04:02:59.278Z,7.43
2024-03-16T04:05:28.097Z,7.10
2024-03-16T04:07:55.957Z,8.17
2024-03-16T04:10:23.667Z,7.57
2024-03-16T04:12:51.139Z,7.60
2024-03-16T04:15:18.963Z,7.07
2024-03-16T04:17:46.498Z,6.67
2024-03-16T04:20:14.404Z,7.23
2024-03-16T04:22:43.302Z,6.50
2024-03-16T04:25:13.643Z,6.63
2024-03-16T04:27:43.124Z,7.00
2024-03-16T04:30:13.102Z,6.20
2024-03-16T04:32:41.472Z,6.93
2024-03-16T04:35:09.895Z,6.20
2024-03-16T04:37:37.870Z,6.30
2024-03-16T04:40:06.366Z,6.53
2024-03-16T04:42:34.059Z,6.23
2024-03-16T04:45:02.023Z,5.87
2024-03-16T04:47:29.843Z,6.30
2024-03-16T04:49:57.541Z,6.60
2024-03-16T04:52:25.763Z,6.47
2024-03-16T04:54:53.551Z,7.27
2024-03-16T04:57:21.300Z,6.83
2024-03-16T04:59:48.753Z,6.53
2024-03-16T05:02:16.333Z,6.13
2024-03-16T05:04:43.797Z,6.83
2024-03-16T05:07:11.548Z,5.80
2024-03-16T05:09:39.399Z,6.13
2024-03-16T05:12:07.189Z,6.07
2024-03-16T05:14:34.755Z,5.67
2024-03-16T05:17:02.379Z,6.20
2024-03-16T05:19:30.041Z,5.90
2024-03-16T05:21:57.615Z,6.00
2024-03-16T05:24:25.285Z,6.03
2024-03-16T05:26:53.852Z,5.97
2024-03-16T05:29:21.638Z,5.93
2024-03-16T05:32:00.452Z,7.23
2024-03-16T05:34:28.269Z,5.90
2024-03-16T05:36:55.976Z,6.00
2024-03-16T05:39:23.539Z,6.57
2024-03-16T05:41:51.246Z,6.70
2024-03-16T05:44:18.814Z,7.40
2024-03-16T05:46:46.380Z,6.00
2024-03-16T05:49:14.126Z,5.37
2024-03-16T05:51:41.789Z,5.10
2024-03-16T05:54:10.614Z,5.70
2024-03-16T05:56:38.687Z,5.50
2024-03-16T05:59:07.400Z,4.80
2024-03-16T06:01:36.733Z,6.43
2024-03-16T06:04:04.621Z,5.17
2024-03-16T06:06:33.624Z,5.03
2024-03-16T06:09:01.591Z,5.23
2024-03-16T06:11:29.569Z,5.00
2024-03-16T06:13:57.081Z,4.70
2024-03-16T06:16:24.550Z,5.40
2024-03-16T06:18:52.275Z,6.93
2024-03-16T06:21:20.353Z,5.63
2024-03-16T06:23:49.588Z,6.13
2024-03-16T06:26:20.803Z,6.47
2024-03-16T06:28:55.986Z,9.30
2024-03-16T06:31:33.152Z,8.93
2024-03-16T06:34:03.209Z,9.03
2024-03-16T06:36:31.015Z,9.97
2024-03-16T06:38:58.918Z,8.67
2024-03-16T06:41:28.280Z,9.33
2024-03-16T06:43:55.803Z,8.90
2024-03-16T06:46:23.947Z,8.70
2024-03-16T06:48:52.258Z,9.37
2024-03-16T06:51:20.250Z,8.60
2024-03-16T06:53:51.023Z,8.40
2024-03-16T06:56:19.559Z,7.30
2024-03-16T06:58:47.403Z,7.23
2024-03-16T07:01:16.129Z,7.33
2024-03-16T07:03:43.951Z,4.00
2024-03-16T07:06:11.501Z,5.30
2024-03-16T07:08:39.578Z,5.03
2024-03-16T07:11:07.706Z,3.70
2024-03-16T07:13:36.521Z,3.60
2024-03-16T07:16:04.440Z,3.00
2024-03-16T07:18:34.583Z,2.10
2024-03-16T07:21:02.261Z,1.50
2024-03-16T07:23:30.009Z,1.30
2024-03-16T07:25:59.860Z,0.93
2024-03-16T07:28:27.431Z,1.10
2024-03-16T07:30:58.599Z,0.90
2024-03-16T07:33:26.143Z,0.90
2024-03-16T07:35:53.647Z,2.50
2024-03-16T07:38:21.529Z,1.33
2024-03-16T07:40:49.129Z,1.10
2024-03-16T07:43:16.695Z,1.90
2024-03-16T07:45:49.265Z,1.10
2024-03-16T07:48:16.756Z,1.87
2024-03-16T07:50:44.236Z,1.33
2024-03-16T07:53:11.692Z,2.47
2024-03-16T07:55:39.572Z,1.20
2024-03-16T07:58:09.192Z,1.90
2024-03-16T08:00:37.191Z,0.93
2024-03-16T08:03:05.112Z,0.67
2024-03-16T08:05:33.532Z,0.70
2024-03-16T08:08:01.232Z,1.53
2024-03-16T08:10:29.808Z,1.10
2024-03-16T08:12:57.387Z,0.83
2024-03-16T08:15:25.076Z,2.77
2024-03-16T08:17:53.146Z,0.80
2024-03-16T08:20:21.079Z,0.70
2024-03-16T08:22:57.908Z,2.90
2024-03-16T08:25:28.074Z,3.03
2024-03-16T08:27:55.667Z,1.17
2024-03-16T08:30:23.594Z,0.70
2024-03-16T08:32:51.630Z,1.10
2024-03-16T08:35:19.482Z,1.30
2024-03-16T08:37:47.521Z,0.70
2024-03-16T08:40:16.825Z,1.07
2024-03-16T08:42:44.857Z,3.03
2024-03-16T08:45:16.953Z,0.80
2024-03-16T08:47:44.477Z,0.60
2024-03-16T08:50:12.259Z,0.63
2024-03-16T08:52:40.183Z,0.60
2024-03-16T08:55:07.774Z,0.60
2024-03-16T08:57:36.776Z,0.40
2024-03-16T09:00:05.782Z,1.00
2024-03-16T09:02:33.840Z,0.67
2024-03-16T09:05:02.155Z,0.33
2024-03-16T09:07:30.086Z,0.70
2024-03-16T09:09:59.252Z,0.40
2024-03-16T09:12:29.523Z,0.40
2024-03-16T09:14:57.442Z,0.30
2024-03-16T09:17:24.934Z,1.43
2024-03-16T09:19:53.086Z,0.50
2024-03-16T09:22:20.690Z,0.30
2024-03-16T09:24:49.003Z,0.43
2024-03-16T09:27:16.498Z,0.50
2024-03-16T09:29:45.234Z,0.60
2024-03-16T09:32:15.266Z,0.50
2024-03-16T09:34:43.000Z,0.53
2024-03-16T09:37:11.224Z,0.50
2024-03-16T09:39:39.007Z,2.73
2024-03-16T09:42:08.595Z,0.63
